Time;durP1;ratioP1;P1;durP2;ratioP2;P2;SDS_P1;SDS_P2;PMS_P1;PMS_P2;Temp;Humidity;BMP_temperature;BMP_pressure;BME280_temperature;BME280_humidity;BME280_pressure;Samples;Min_cycle;Max_cycle;Signal;HPM_P1;HPM_P2
2023/04/18 00:00:55;;;;;;;15.90;9.32;;;;;;;10.77;60.27;102602.78;5012126;28;20403;-56
2023/04/18 00:03:20;;;;;;;16.08;9.43;;;;;;;10.79;60.21;102600.97;5011562;28;20124;-52
2023/04/18 00:05:46;;;;;;;16.98;9.00;;;;;;;10.78;60.07;102604.50;5007973;28;20112;-54
2023/04/18 00:08:13;;;;;;;16.30;9.15;;;;;;;10.77;60.03;102608.91;5014610;28;20087;-54
2023/04/18 00:10:38;;;;;;;19.10;8.95;;;;;;;10.80;60.05;102606.19;5005542;28;20108;-51
2023/04/18 00:13:04;;;;;;;16.65;8.63;;;;;;;10.82;60.17;102603.50;5015078;28;20561;-51
2023/04/18 00:15:30;;;;;;;13.68;7.88;;;;;;;10.85;59.83;102602.56;5009592;28;20037;-54
2023/04/18 00:17:56;;;;;;;15.43;8.18;;;;;;;10.86;59.78;102596.38;5012563;28;20106;-55
2023/04/18 00:20:24;;;;;;;15.63;9.02;;;;;;;10.87;59.78;102595.47;5014218;28;20032;-57
2023/04/18 00:22:51;;;;;;;20.45;9.30;;;;;;;10.87;59.76;102593.69;5012853;28;20113;-52
2023/04/18 00:25:17;;;;;;;15.18;8.68;;;;;;;10.91;59.65;102597.09;5007776;28;20069;-54
2023/04/18 00:27:43;;;;;;;13.55;8.27;;;;;;;10.90;59.52;102592.72;5010368;28;20500;-57
2023/04/18 00:30:09;;;;;;;14.30;8.25;;;;;;;10.88;59.66;102610.38;5012162;28;20048;-56
2023/04/18 00:32:35;;;;;;;17.35;8.75;;;;;;;10.88;59.52;102599.84;5013358;28;20033;-58
2023/04/18 00:35:00;;;;;;;15.82;8.50;;;;;;;10.84;59.57;102606.94;5007116;28;20079;-58
2023/04/18 00:37:26;;;;;;;15.10;8.55;;;;;;;10.80;59.78;102606.19;5008661;28;20033;-58
2023/04/18 00:39:52;;;;;;;17.17;8.02;;;;;;;10.78;59.68;102602.72;5021874;28;20136;-58
2023/04/18 00:42:24;;;;;;;14.63;8.10;;;;;;;10.77;59.69;102597.50;4994543;28;20443;-58
2023/04/18 00:44:49;;;;;;;19.10;9.00;;;;;;;10.74;59.66;102592.31;5017922;28;20052;-54
2023/04/18 00:47:18;;;;;;;14.07;8.27;;;;;;;10.73;59.67;102596.75;5014020;28;20778;-58
2023/04/18 00:49:44;;;;;;;14.02;6.25;;;;;;;10.70;59.71;102598.59;5013925;28;20574;-58
2023/04/18 00:52:14;;;;;;;17.75;9.30;;;;;;;10.68;59.74;102596.00;5011719;28;20044;-58
2023/04/18 00:54:40;;;;;;;13.63;8.43;;;;;;;10.64;59.83;102591.72;5013131;28;20064;-57
2023/04/18 00:57:06;;;;;;;16.98;8.60;;;;;;;10.60;59.77;102596.22;5003030;28;20041;-53
2023/04/18 00:59:35;;;;;;;19.92;9.05;;;;;;;10.62;59.81;102597.03;5014210;28;20447;-55
2023/04/18 01:02:02;;;;;;;17.13;10.38;;;;;;;10.60;59.89;102598.84;5013848;28;20017;-59
2023/04/18 01:04:28;;;;;;;18.27;8.82;;;;;;;10.56;59.96;102591.94;5016345;28;20404;-57
2023/04/18 01:06:54;;;;;;;24.65;9.70;;;;;;;10.54;60.16;102593.75;5011780;28;20017;-58
2023/04/18 01:09:21;;;;;;;16.58;9.40;;;;;;;10.54;60.19;102598.16;5010094;28;20032;-56
2023/04/18 01:11:46;;;;;;;18.55;9.48;;;;;;;10.50;60.07;102600.03;5012024;28;20064;-57
2023/04/18 01:14:12;;;;;;;15.80;8.25;;;;;;;10.47;60.13;102594.84;5013637;28;20152;-56
2023/04/18 01:16:37;;;;;;;18.58;8.45;;;;;;;10.46;60.17;102601.00;5014553;28;20036;-54
2023/04/18 01:19:04;;;;;;;15.93;8.93;;;;;;;10.51;60.11;102599.97;5014009;28;20033;-56
2023/04/18 01:21:32;;;;;;;15.90;8.82;;;;;;;10.45;60.13;102600.13;5015085;28;20424;-57
2023/04/18 01:24:10;;;;;;;19.55;9.40;;;;;;;10.44;60.34;102600.19;5008356;28;20508;-58
2023/04/18 01:26:36;;;;;;;18.25;8.95;;;;;;;10.42;60.40;102607.25;5010081;28;20044;-57
2023/04/18 01:29:01;;;;;;;18.85;9.45;;;;;;;10.43;60.41;102599.34;5013804;28;20037;-59
2023/04/18 01:31:26;;;;;;;20.45;9.10;;;;;;;10.44;60.40;102602.81;5016658;28;20041;-55
2023/04/18 01:33:52;;;;;;;13.82;7.97;;;;;;;10.43;60.46;102607.22;5015118;28;22428;-57
2023/04/18 01:36:17;;;;;;;15.02;8.82;;;;;;;10.41;60.41;102605.53;5012946;28;20032;-59
2023/04/18 01:38:43;;;;;;;14.55;9.23;;;;;;;10.40;60.35;102606.44;5011908;28;20508;-56
2023/04/18 01:41:08;;;;;;;17.30;9.60;;;;;;;10.42;60.47;102599.34;5015183;28;20502;-55
2023/04/18 01:43:34;;;;;;;17.77;10.00;;;;;;;10.41;60.53;102602.88;5012572;28;20111;-58
2023/04/18 01:45:59;;;;;;;18.60;10.20;;;;;;;10.44;60.40;102600.19;5014508;28;20064;-56
2023/04/18 01:48:25;;;;;;;17.88;10.40;;;;;;;10.45;60.53;102600.13;5008673;28;20527;-57
2023/04/18 01:50:50;;;;;;;17.38;9.88;;;;;;;10.44;60.36;102593.13;5010286;28;20373;-57
2023/04/18 01:53:16;;;;;;;16.95;10.00;;;;;;;10.44;60.41;102600.19;5009752;28;20134;-58
2023/04/18 01:55:42;;;;;;;17.60;10.40;;;;;;;10.43;60.47;102601.09;5009996;28;21753;-54
2023/04/18 01:58:07;;;;;;;21.00;10.60;;;;;;;10.45;60.55;102604.53;5011182;28;20068;-57
2023/04/18 02:00:33;;;;;;;13.48;6.38;;;;;;;10.43;60.73;102595.81;5017550;28;20366;-53
2023/04/18 02:02:59;;;;;;;17.30;10.57;;;;;;;10.38;60.68;102590.69;4996744;28;20095;-54
2023/04/18 02:05:26;;;;;;;20.05;10.98;;;;;;;10.35;60.68;102593.38;5009749;28;20159;-54
2023/04/18 02:07:51;;;;;;;20.02;10.13;;;;;;;10.33;60.71;102596.06;5014964;28;20400;-57
2023/04/18 02:10:17;;;;;;;23.35;11.27;;;;;;;10.30;60.82;102595.25;5013080;28;20029;-58
2023/04/18 02:12:43;;;;;;;21.00;10.50;;;;;;;10.28;60.90;102589.19;5011846;28;20045;-57
2023/04/18 02:15:09;;;;;;;21.85;11.65;;;;;;;10.29;60.92;102589.13;5008996;28;20033;-56
2023/04/18 02:17:35;;;;;;;17.55;9.90;;;;;;;10.30;60.81;102590.00;4986061;28;20037;-59
2023/04/18 02:20:01;;;;;;;21.20;10.63;;;;;;;10.28;61.05;102592.66;5010111;28;20034;-56
2023/04/18 02:22:26;;;;;;;19.67;12.23;;;;;;;10.23;61.03;102584.03;5007475;28;20506;-57
2023/04/18 02:24:52;;;;;;;18.80;11.68;;;;;;;10.23;61.20;102581.41;4991032;28;20033;-54
2023/04/18 02:27:17;;;;;;;23.58;12.02;;;;;;;10.20;61.14;102581.50;5010149;28;20034;-58
2023/04/18 02:29:42;;;;;;;22.80;13.50;;;;;;;10.17;61.12;102589.47;5011792;28;20399;-54
2023/04/18 02:32:08;;;;;;;27.15;12.57;;;;;;;10.11;61.20;102584.34;5013447;28;20428;-56
2023/04/18 02:34:34;;;;;;;23.40;12.35;;;;;;;10.09;61.35;102596.69;5009179;28;20042;-58
2023/04/18 02:37:00;;;;;;;21.48;11.65;;;;;;;10.01;61.35;102589.00;4995896;28;20095;-57
2023/04/18 02:39:25;;;;;;;30.25;13.30;;;;;;;9.96;61.59;102597.00;5011069;28;20430;-58
2023/04/18 02:41:51;;;;;;;20.98;11.43;;;;;;;9.95;61.45;102595.28;5014622;28;20542;-58
2023/04/18 02:44:16;;;;;;;22.17;12.65;;;;;;;9.88;61.81;102593.72;5014592;28;20031;-54
2023/04/18 02:46:42;;;;;;;24.27;12.70;;;;;;;9.81;61.90;102597.38;5004583;28;20026;-56
2023/04/18 02:49:07;;;;;;;26.08;13.75;;;;;;;9.83;61.80;102595.59;5008949;28;20041;-54
2023/04/18 02:51:33;;;;;;;20.58;12.98;;;;;;;9.83;61.74;102604.31;4993422;28;20037;-54
2023/04/18 02:53:58;;;;;;;21.70;11.57;;;;;;;9.85;61.73;102599.06;5012130;28;20038;-57
2023/04/18 02:56:24;;;;;;;23.65;11.77;;;;;;;9.85;61.95;102599.06;5009107;28;20032;-53
2023/04/18 02:58:49;;;;;;;22.02;11.05;;;;;;;9.82;61.75;102593.88;5008930;28;20029;-54
2023/04/18 03:01:16;;;;;;;22.30;11.48;;;;;;;9.80;61.83;102600.91;5006399;28;20475;-56
2023/04/18 03:03:42;;;;;;;22.23;11.95;;;;;;;9.80;61.78;102599.16;4989997;28;20484;-55
2023/04/18 03:06:07;;;;;;;25.08;12.88;;;;;;;9.79;61.94;102599.19;4996586;28;20036;-54
2023/04/18 03:08:33;;;;;;;21.33;12.38;;;;;;;9.77;61.93;102594.81;5002084;28;20578;-54
2023/04/18 03:10:58;;;;;;;18.70;10.98;;;;;;;9.75;61.96;102591.41;5010707;28;20057;-51
2023/04/18 03:13:24;;;;;;;21.75;13.00;;;;;;;9.75;61.91;102593.16;5018709;28;20468;-55
2023/04/18 03:15:50;;;;;;;25.38;12.65;;;;;;;9.74;62.00;102589.66;5007799;28;20525;-56
2023/04/18 03:18:15;;;;;;;23.48;12.82;;;;;;;9.74;61.95;102583.53;5012678;28;20037;-51
2023/04/18 03:20:41;;;;;;;18.17;11.10;;;;;;;9.71;62.11;102591.50;5009014;28;20079;-53
2023/04/18 03:23:06;;;;;;;23.35;12.82;;;;;;;9.70;62.08;102590.63;5009077;28;20037;-58
2023/04/18 03:25:33;;;;;;;26.20;13.32;;;;;;;9.72;62.04;102594.09;5013261;28;20080;-54
2023/04/18 03:27:58;;;;;;;22.92;12.00;;;;;;;9.68;62.13;102591.59;5010471;28;20108;-51
2023/04/18 03:30:24;;;;;;;25.05;12.90;;;;;;;9.69;61.94;102593.28;5013558;28;20039;-54
2023/04/18 03:32:51;;;;;;;21.13;11.93;;;;;;;9.64;62.07;102590.78;5006699;28;20480;-55
2023/04/18 03:35:17;;;;;;;21.90;11.15;;;;;;;9.68;62.05;102596.84;5007972;28;20098;-52
2023/04/18 03:37:43;;;;;;;23.45;12.07;;;;;;;9.60;62.20;102594.41;5010474;28;20465;-57
2023/04/18 03:40:09;;;;;;;19.10;12.27;;;;;;;9.61;62.27;102596.09;5004691;28;20033;-51
2023/04/18 03:42:35;;;;;;;23.75;11.50;;;;;;;9.61;62.23;102588.22;4990907;28;22955;-56
2023/04/18 03:45:01;;;;;;;22.90;13.30;;;;;;;9.61;62.05;102585.59;5008506;28;20124;-51
2023/04/18 03:47:27;;;;;;;25.75;12.35;;;;;;;9.55;62.33;102591.00;5007690;28;20156;-53
2023/04/18 03:49:53;;;;;;;19.95;11.82;;;;;;;9.59;62.23;102595.31;4999230;28;20080;-52
2023/04/18 03:52:19;;;;;;;21.58;11.85;;;;;;;9.62;62.07;102597.81;5012639;28;20029;-52
2023/04/18 03:54:44;;;;;;;22.05;12.75;;;;;;;9.62;62.00;102595.19;5011861;28;20051;-50
2023/04/18 03:57:10;;;;;;;25.48;13.23;;;;;;;9.60;62.08;102599.66;5001518;28;20508;-53
2023/04/18 03:59:35;;;;;;;25.13;12.93;;;;;;;9.56;62.07;102595.38;5012181;28;20081;-51
2023/04/18 04:02:01;;;;;;;21.15;12.02;;;;;;;9.50;62.17;102601.63;4972310;28;20041;-54
2023/04/18 04:04:27;;;;;;;19.95;10.98;;;;;;;9.45;62.07;102601.72;5013263;28;20026;-51
2023/04/18 04:06:52;;;;;;;25.27;11.60;;;;;;;9.40;62.24;102603.59;5009990;28;20032;-56
2023/04/18 04:09:18;;;;;;;24.88;11.38;;;;;;;9.42;62.13;102608.81;5012454;28;20037;-53
2023/04/18 04:11:45;;;;;;;22.30;12.38;;;;;;;9.40;62.19;102605.34;5013814;28;20041;-53
2023/04/18 04:14:10;;;;;;;23.85;13.13;;;;;;;9.36;62.24;102595.84;5012967;28;20072;-56
2023/04/18 04:16:36;;;;;;;30.95;16.85;;;;;;;9.32;62.25;102597.66;4992738;28;20116;-51
2023/04/18 04:19:03;;;;;;;29.00;12.68;;;;;;;9.32;62.38;102609.94;5011551;28;20820;-55
2023/04/18 04:21:30;;;;;;;23.67;12.75;;;;;;;9.30;62.34;102607.34;4977847;28;20104;-56
2023/04/18 04:23:55;;;;;;;26.92;12.43;;;;;;;9.22;62.81;102611.91;5008721;28;20064;-53
2023/04/18 04:26:22;;;;;;;23.35;12.85;;;;;;;9.12;62.56;102612.09;5008193;28;20049;-52
2023/04/18 04:28:48;;;;;;;28.67;13.23;;;;;;;9.14;62.85;102617.31;4990925;28;20502;-55
2023/04/18 04:31:15;;;;;;;23.60;12.13;;;;;;;9.13;62.83;102616.47;4999307;28;20048;-56
2023/04/18 04:33:41;;;;;;;30.17;14.82;;;;;;;9.14;62.59;102618.19;4992403;28;20029;-53
2023/04/18 04:36:08;;;;;;;31.77;15.45;;;;;;;9.17;62.70;102624.25;5012598;28;20136;-52
2023/04/18 04:38:37;;;;;;;24.73;13.88;;;;;;;9.20;62.57;102621.56;4997893;28;20086;-54
2023/04/18 04:41:10;;;;;;;23.30;12.48;;;;;;;9.22;62.68;102625.03;5003136;28;20472;-55
2023/04/18 04:43:36;;;;;;;;;;;;;;;9.18;63.14;102624.25;5008810;28;20049;-56
2023/04/18 04:46:02;;;;;;;30.05;13.43;;;;;;;9.21;62.79;102623.31;5007414;28;20024;-57
2023/04/18 04:48:28;;;;;;;27.00;11.80;;;;;;;9.25;62.71;102624.97;5007040;28;20071;-58
2023/04/18 04:50:56;;;;;;;29.33;12.60;;;;;;;9.29;62.73;102631.91;5009998;28;20029;-54
2023/04/18 04:53:23;;;;;;;27.35;11.93;;;;;;;9.29;62.47;102637.16;4993049;28;20030;-58
2023/04/18 04:55:49;;;;;;;29.15;13.90;;;;;;;9.23;62.72;102626.75;5000129;28;20025;-58
2023/04/18 04:58:15;;;;;;;24.90;12.43;;;;;;;9.29;62.83;102637.16;5009449;28;20026;-57
2023/04/18 05:00:40;;;;;;;27.42;12.27;;;;;;;9.36;62.64;102638.72;5007313;28;20472;-55
2023/04/18 05:03:06;;;;;;;23.20;11.90;;;;;;;9.37;62.68;102626.47;5007780;28;20075;-56
2023/04/18 05:05:32;;;;;;;25.95;13.23;;;;;;;9.33;62.66;102633.53;5009042;28;20125;-55
2023/04/18 05:07:58;;;;;;;24.67;13.18;;;;;;;9.37;62.68;102634.34;5009411;28;20116;-56
2023/04/18 05:10:23;;;;;;;22.60;13.50;;;;;;;9.40;62.71;102632.50;5016883;28;20025;-56
2023/04/18 05:12:49;;;;;;;26.55;12.98;;;;;;;9.42;62.62;102638.59;5015639;28;20045;-57
2023/04/18 05:15:15;;;;;;;27.55;12.75;;;;;;;9.44;62.60;102641.19;5016209;28;20029;-56
2023/04/18 05:17:41;;;;;;;29.27;12.15;;;;;;;9.39;62.65;102641.28;4999044;28;20029;-57
2023/04/18 05:20:07;;;;;;;24.25;12.35;;;;;;;9.46;62.71;102639.38;5014529;28;20059;-57
2023/04/18 05:22:33;;;;;;;20.92;11.27;;;;;;;9.51;62.51;102636.66;5013530;28;20043;-55
2023/04/18 05:24:58;;;;;;;29.40;13.60;;;;;;;9.50;62.49;102641.06;5021441;28;20030;-53
2023/04/18 05:27:25;;;;;;;25.77;12.45;;;;;;;9.53;62.40;102645.38;5012557;28;20083;-57
2023/04/18 05:29:51;;;;;;;27.63;13.50;;;;;;;9.55;62.47;102644.41;5019458;28;20055;-62
2023/04/18 05:32:17;;;;;;;23.95;12.13;;;;;;;9.59;62.60;102653.13;5016079;28;20541;-54
2023/04/18 05:34:42;;;;;;;17.98;7.90;;;;;;;9.60;62.59;102641.72;5012665;28;20033;-50
2023/04/18 05:37:08;;;;;;;16.70;6.68;;;;;;;9.67;62.36;102640.66;5020238;28;20030;-53
2023/04/18 05:39:33;;;;;;;20.88;10.98;;;;;;;9.70;62.51;102643.22;5010717;28;20061;-51
2023/04/18 05:41:59;;;;;;;20.17;10.93;;;;;;;9.70;62.37;102647.59;5021381;28;20408;-50
2023/04/18 05:44:25;;;;;;;19.40;12.55;;;;;;;9.70;62.30;102656.34;5015904;28;20435;-53
2023/04/18 05:46:50;;;;;;;23.05;10.05;;;;;;;9.71;62.59;102652.84;5016814;28;20033;-53
2023/04/18 05:49:19;;;;;;;17.50;11.10;;;;;;;9.75;62.35;102657.13;5016572;28;20437;-55
2023/04/18 05:51:45;;;;;;;23.67;11.00;;;;;;;9.81;62.25;102650.84;5012842;28;20161;-49
2023/04/18 05:54:11;;;;;;;19.02;10.60;;;;;;;9.89;62.23;102645.41;5018610;28;20030;-53
2023/04/18 05:56:39;;;;;;;19.52;10.07;;;;;;;9.97;62.09;102656.59;4992715;28;20037;-52
2023/04/18 05:59:04;;;;;;;20.55;12.10;;;;;;;10.03;61.99;102651.19;5020752;28;20057;-49
2023/04/18 06:01:31;;;;;;;18.35;11.00;;;;;;;10.03;62.00;102655.56;5014614;28;20151;-51
2023/04/18 06:03:56;;;;;;;19.70;10.88;;;;;;;10.03;61.84;102655.56;5019332;28;20029;-57
2023/04/18 06:06:24;;;;;;;18.08;10.00;;;;;;;10.10;61.95;102658.91;5014203;28;20033;-56
2023/04/18 06:08:50;;;;;;;24.10;11.38;;;;;;;10.11;61.97;102652.75;5010415;28;20026;-54
2023/04/18 06:11:15;;;;;;;17.90;10.35;;;;;;;10.05;61.89;102646.75;5011997;28;21325;-56
2023/04/18 06:13:41;;;;;;;20.98;11.20;;;;;;;10.07;62.03;102651.97;5020908;28;20040;-56
2023/04/18 06:16:07;;;;;;;23.50;10.18;;;;;;;10.06;61.97;102645.84;5014489;28;20108;-56
2023/04/18 06:18:33;;;;;;;19.08;10.25;;;;;;;10.12;61.98;102655.38;5014592;28;20044;-56
2023/04/18 06:20:58;;;;;;;21.92;10.20;;;;;;;10.20;62.07;102649.91;5018334;28;20779;-57
2023/04/18 06:23:24;;;;;;;23.48;10.40;;;;;;;10.27;61.90;102661.97;5013272;28;22066;-54
2023/04/18 06:25:49;;;;;;;18.48;9.63;;;;;;;10.33;61.85;102653.94;5014929;28;20025;-56
2023/04/18 06:28:15;;;;;;;20.67;9.55;;;;;;;10.39;61.88;102657.31;5000182;28;20036;-56
2023/04/18 06:30:40;;;;;;;18.92;10.70;;;;;;;10.43;61.85;102661.63;5015319;28;20034;-55
2023/04/18 06:33:09;;;;;;;21.85;10.98;;;;;;;10.49;61.61;102664.09;5017143;28;20417;-56
2023/04/18 06:35:35;;;;;;;20.42;8.93;;;;;;;10.49;61.89;102659.69;5017887;28;20040;-55
2023/04/18 06:38:00;;;;;;;16.75;8.93;;;;;;;10.60;61.76;102662.03;5012371;28;20026;-56
2023/04/18 06:40:26;;;;;;;16.50;9.52;;;;;;;10.70;61.65;102661.78;5014495;28;20522;-56
2023/04/18 06:42:51;;;;;;;19.20;10.23;;;;;;;10.73;61.46;102662.56;5009350;28;20038;-56
2023/04/18 06:45:17;;;;;;;18.33;9.75;;;;;;;10.81;61.55;102665.00;5017974;28;20047;-55
2023/04/18 06:47:42;;;;;;;18.83;9.27;;;;;;;10.88;61.33;102661.25;5014518;28;20112;-55
2023/04/18 06:50:08;;;;;;;25.65;10.55;;;;;;;10.94;61.25;102671.63;5017953;28;20113;-56
2023/04/18 06:52:39;;;;;;;17.23;9.23;;;;;;;11.01;61.24;102674.09;5016326;28;20037;-56
2023/04/18 06:55:05;;;;;;;11.95;6.85;;;;;;;11.06;61.02;102669.56;5014059;28;20057;-56
2023/04/18 06:57:30;;;;;;;14.32;8.27;;;;;;;11.10;60.89;102673.84;5017183;28;20061;-56
2023/04/18 06:59:56;;;;;;;19.15;9.48;;;;;;;11.15;61.10;102673.69;5014190;28;20124;-56
2023/04/18 07:02:21;;;;;;;19.73;10.48;;;;;;;11.17;61.05;102672.72;5016198;28;20017;-56
2023/04/18 07:04:47;;;;;;;18.35;8.50;;;;;;;11.19;61.00;102667.44;5014042;28;20037;-56
2023/04/18 07:07:12;;;;;;;16.13;10.32;;;;;;;11.22;60.75;102670.84;5019263;28;20038;-56
2023/04/18 07:09:38;;;;;;;15.00;8.95;;;;;;;11.23;60.82;102672.56;5008645;28;20395;-54
2023/04/18 07:12:03;;;;;;;19.88;10.10;;;;;;;11.26;60.90;102668.97;5018278;28;20384;-57
2023/04/18 07:14:29;;;;;;;22.40;10.88;;;;;;;11.34;60.83;102669.63;5014226;28;20030;-56
2023/04/18 07:16:56;;;;;;;17.05;8.65;;;;;;;11.34;60.76;102674.00;5016639;28;20026;-57
2023/04/18 07:19:22;;;;;;;17.48;9.15;;;;;;;11.40;60.81;102679.09;5012390;28;20033;-56
2023/04/18 07:21:47;;;;;;;19.02;8.52;;;;;;;11.48;60.77;102681.50;5015951;28;20040;-57
2023/04/18 07:24:12;;;;;;;16.77;8.60;;;;;;;11.51;60.87;102671.72;5011014;28;20681;-57
2023/04/18 07:26:38;;;;;;;18.40;9.73;;;;;;;11.55;60.50;102677.75;4999514;28;20028;-55
2023/04/18 07:29:04;;;;;;;15.07;9.15;;;;;;;11.55;60.46;102673.38;5013357;28;20136;-56
2023/04/18 07:31:30;;;;;;;19.20;10.05;;;;;;;11.58;60.51;102678.50;5015168;28;20057;-56
2023/04/18 07:33:56;;;;;;;21.52;10.27;;;;;;;11.56;60.42;102679.47;5015322;28;20044;-57
2023/04/18 07:36:21;;;;;;;20.15;9.05;;;;;;;11.54;60.36;102676.91;5015094;28;20030;-57
2023/04/18 07:38:47;;;;;;;21.40;10.32;;;;;;;11.53;60.29;102683.09;5030959;28;20025;-54
2023/04/18 07:41:12;;;;;;;20.20;9.60;;;;;;;11.54;60.39;102686.56;5026373;28;20419;-56
2023/04/18 07:43:38;;;;;;;20.85;11.35;;;;;;;11.54;60.43;102684.81;5020600;28;20725;-56
2023/04/18 07:46:06;;;;;;;18.10;10.32;;;;;;;11.55;60.45;102681.28;5012009;28;20037;-57
2023/04/18 07:48:32;;;;;;;18.23;10.40;;;;;;;11.57;60.48;102682.06;5012808;28;20030;-57
2023/04/18 07:50:58;;;;;;;20.73;9.68;;;;;;;11.62;60.23;102688.97;5017971;28;20025;-56
2023/04/18 07:53:23;;;;;;;16.27;9.05;;;;;;;11.65;59.97;102691.53;5017878;28;20017;-56
2023/04/18 07:55:49;;;;;;;17.90;8.02;;;;;;;11.68;60.11;102688.78;5019739;28;20037;-56
2023/04/18 07:58:15;;;;;;;15.73;9.55;;;;;;;11.77;59.95;102690.28;5017816;28;20022;-56
2023/04/18 08:00:44;;;;;;;14.93;8.65;;;;;;;11.80;59.91;102692.84;5017276;28;20025;-56
2023/04/18 08:03:10;;;;;;;17.17;8.30;;;;;;;11.86;59.81;102692.63;5011259;28;20032;-57
2023/04/18 08:05:40;;;;;;;17.67;9.52;;;;;;;11.92;59.80;102691.56;5015701;28;20044;-56
2023/04/18 08:08:07;;;;;;;16.45;9.73;;;;;;;12.02;59.64;102690.41;5016858;28;20057;-56
2023/04/18 08:10:33;;;;;;;15.13;8.15;;;;;;;12.11;59.53;102681.28;5018134;28;20037;-57
2023/04/18 08:12:59;;;;;;;16.38;8.98;;;;;;;12.14;59.58;102686.47;5012714;28;20041;-56
2023/04/18 08:15:26;;;;;;;19.45;10.40;;;;;;;12.20;59.50;102691.56;5016775;28;20040;-56
2023/04/18 08:17:52;;;;;;;16.08;8.77;;;;;;;12.27;59.49;102693.06;5014446;28;20041;-56
2023/04/18 08:20:18;;;;;;;13.80;8.50;;;;;;;12.35;59.41;102695.44;4999027;28;20029;-57
2023/04/18 08:22:44;;;;;;;13.52;7.43;;;;;;;12.44;59.09;102694.25;5016701;28;20025;-56
2023/04/18 08:25:09;;;;;;;17.60;10.13;;;;;;;12.47;59.13;102691.53;5016272;28;20026;-57
2023/04/18 08:27:35;;;;;;;14.82;8.07;;;;;;;12.48;59.04;102691.44;5008278;28;20036;-57
2023/04/18 08:30:02;;;;;;;14.30;8.98;;;;;;;12.55;59.24;102688.63;5015805;28;20029;-56
2023/04/18 08:32:28;;;;;;;15.30;8.07;;;;;;;12.64;59.04;102690.91;5018021;28;20033;-57
2023/04/18 08:34:54;;;;;;;19.58;9.10;;;;;;;12.64;59.03;102696.19;5010511;28;20038;-58
2023/04/18 08:37:20;;;;;;;15.63;8.73;;;;;;;12.68;59.07;102689.06;5016604;28;20026;-56
2023/04/18 08:39:45;;;;;;;18.23;9.85;;;;;;;12.73;59.04;102697.66;5001808;28;20586;-57
2023/04/18 08:42:15;;;;;;;14.98;8.60;;;;;;;12.80;58.88;102689.47;5013429;28;20037;-57
2023/04/18 08:44:41;;;;;;;15.10;8.60;;;;;;;12.88;58.88;102683.03;5014593;28;20041;-57
2023/04/18 08:47:08;;;;;;;15.23;8.43;;;;;;;12.97;58.76;102695.91;5013939;28;20407;-57
2023/04/18 08:49:34;;;;;;;22.13;10.10;;;;;;;13.05;58.77;102696.50;5013560;28;21558;-57
2023/04/18 08:52:01;;;;;;;14.45;9.27;;;;;;;13.15;58.56;102690.88;5016751;28;20036;-57
2023/04/18 08:54:29;;;;;;;15.45;7.95;;;;;;;13.25;58.53;102686.94;5014038;28;20504;-57
2023/04/18 08:57:08;;;;;;;16.80;9.15;;;;;;;13.41;57.96;102697.84;5017516;28;20034;-53
2023/04/18 08:59:35;;;;;;;16.35;9.68;;;;;;;13.48;58.29;102687.88;5013758;28;20030;-57
2023/04/18 09:02:03;;;;;;;16.42;8.60;;;;;;;13.64;57.78;102683.72;5015118;28;20115;-57
2023/04/18 09:04:39;;;;;;;12.60;8.20;;;;;;;13.72;57.66;102697.50;5019427;28;20029;-57
2023/04/18 09:07:13;;;;;;;18.17;8.77;;;;;;;13.77;57.27;102696.44;5020246;28;20025;-57
2023/04/18 09:09:45;;;;;;;15.95;7.72;;;;;;;13.81;57.54;102695.41;5021504;28;20037;-54
2023/04/18 09:12:13;;;;;;;;;;;;;;;13.80;56.91;102689.25;5014818;28;20036;-54
2023/04/18 09:14:44;;;;;;;16.27;9.45;;;;;;;13.83;57.47;102688.28;5014016;28;19925;-53
2023/04/18 09:17:12;;;;;;;14.83;8.23;;;;;;;13.88;57.43;102688.94;5017981;28;20030;-52
2023/04/18 09:19:45;;;;;;;18.88;9.98;;;;;;;13.95;57.05;102693.06;5017355;28;20292;-52
2023/04/18 09:22:12;;;;;;;15.07;8.50;;;;;;;13.97;57.33;102688.56;5019630;28;20432;-54
2023/04/18 09:24:37;;;;;;;15.05;8.43;;;;;;;14.05;57.41;102693.56;5016583;28;20033;-52
2023/04/18 09:27:13;;;;;;;14.90;8.98;;;;;;;14.10;57.12;102682.78;5015833;28;20026;-54
2023/04/18 09:29:46;;;;;;;15.57;9.50;;;;;;;14.20;57.27;102692.03;5013178;28;20057;-52
2023/04/18 09:32:23;;;;;;;18.00;8.95;;;;;;;14.31;56.89;102695.09;5019537;28;20021;-58
2023/04/18 09:34:53;;;;;;;15.25;8.48;;;;;;;14.41;57.08;102689.41;5011497;28;20644;-56
2023/04/18 09:37:19;;;;;;;19.08;8.77;;;;;;;14.50;57.16;102694.31;5018308;28;20108;-56
2023/04/18 09:39:45;;;;;;;16.02;8.65;;;;;;;14.53;56.92;102678.28;5014338;28;20492;-57
2023/04/18 09:42:11;;;;;;;14.85;8.95;;;;;;;14.57;56.83;102687.81;5015439;28;20052;-55
2023/04/18 09:44:38;;;;;;;23.73;12.00;;;;;;;14.63;56.57;102679.59;5013011;28;20030;-57
2023/04/18 09:47:06;;;;;;;18.77;9.88;;;;;;;14.75;56.37;102678.22;5016591;28;20045;-54
2023/04/18 09:49:32;;;;;;;16.70;9.27;;;;;;;14.80;56.32;102669.22;5018669;28;20061;-57
2023/04/18 09:51:59;;;;;;;16.55;9.05;;;;;;;14.89;56.23;102671.44;5017474;28;20112;-54
2023/04/18 09:54:29;;;;;;;17.27;9.93;;;;;;;14.94;55.99;102672.94;5015087;28;20433;-53
2023/04/18 09:56:55;;;;;;;23.50;9.90;;;;;;;15.07;55.96;102672.38;5008378;28;20062;-56
2023/04/18 09:59:30;;;;;;;17.10;9.07;;;;;;;15.18;55.52;102675.41;5015779;28;20492;-53
2023/04/18 10:01:58;;;;;;;14.65;8.65;;;;;;;15.24;55.68;102669.81;5018347;28;20091;-53
2023/04/18 10:04:25;;;;;;;22.92;13.48;;;;;;;15.36;55.48;102678.13;5014056;28;20395;-53
2023/04/18 10:06:52;;;;;;;17.23;10.48;;;;;;;15.42;55.33;102672.53;5014610;28;20033;-56
2023/04/18 10:09:19;;;;;;;14.30;8.60;;;;;;;15.48;55.34;102676.69;5015835;28;20039;-55
2023/04/18 10:11:45;;;;;;;17.63;9.70;;;;;;;15.49;55.37;102670.44;5016184;28;20034;-55
2023/04/18 10:14:14;;;;;;;14.48;9.32;;;;;;;15.52;55.30;102668.50;5017767;28;20036;-54
2023/04/18 10:16:41;;;;;;;15.52;9.98;;;;;;;15.57;55.12;102670.06;5015876;28;20029;-55
2023/04/18 10:19:26;;;;;;;19.52;10.02;;;;;;;15.64;54.44;102666.19;5022257;28;20033;-54
2023/04/18 10:21:51;;;;;;;21.58;10.52;;;;;;;15.60;54.87;102667.28;5014408;28;20102;-51
2023/04/18 10:24:47;;;;;;;19.13;9.05;;;;;;;15.62;54.22;102674.22;5015398;28;20435;-62
2023/04/18 10:27:13;;;;;;;17.20;9.98;;;;;;;15.60;54.81;102667.28;5007376;28;20416;-61
2023/04/18 10:29:53;;;;;;;15.73;8.73;;;;;;;15.66;54.43;102665.19;5013590;28;20033;-55
2023/04/18 10:32:22;;;;;;;15.70;9.23;;;;;;;15.75;54.71;102663.88;5016105;28;20029;-57
2023/04/18 10:34:48;;;;;;;15.68;9.77;;;;;;;15.78;54.70;102669.03;5017824;28;20083;-59
2023/04/18 10:37:14;;;;;;;16.25;9.23;;;;;;;15.81;54.56;102663.56;5000436;28;20512;-56
2023/04/18 10:39:46;;;;;;;35.25;17.77;;;;;;;15.89;54.45;102657.91;5006203;28;20112;-54
2023/04/18 10:42:12;;;;;;;24.58;12.98;;;;;;;15.91;54.44;102657.84;5015706;28;20024;-59
2023/04/18 10:44:37;;;;;;;15.38;10.05;;;;;;;15.96;54.27;102655.78;4996373;28;20048;-54
2023/04/18 10:47:05;;;;;;;19.67;10.18;;;;;;;16.05;54.12;102657.13;5012432;28;20480;-56
2023/04/18 10:49:31;;;;;;;15.00;8.60;;;;;;;16.11;54.23;102656.81;5016640;28;20061;-51
2023/04/18 10:51:58;;;;;;;19.33;9.95;;;;;;;16.22;53.96;102658.94;5014160;28;20460;-63
2023/04/18 10:54:29;;;;;;;20.23;9.95;;;;;;;16.32;53.89;102659.34;5020437;28;20025;-49
2023/04/18 10:56:57;;;;;;;13.82;7.97;;;;;;;16.38;53.62;102656.34;5010702;28;20037;-59
2023/04/18 10:59:25;;;;;;;18.75;9.00;;;;;;;16.44;53.62;102661.34;5010395;28;20095;-50
2023/04/18 11:01:56;;;;;;;13.55;8.50;;;;;;;16.51;53.28;102652.09;5009122;28;20025;-60
2023/04/18 11:04:24;;;;;;;13.07;8.32;;;;;;;16.57;53.05;102662.41;5010579;28;20025;-46
2023/04/18 11:06:56;;;;;;;18.02;9.20;;;;;;;16.62;53.01;102662.16;5009333;28;20606;-59
2023/04/18 11:09:22;;;;;;;17.95;8.77;;;;;;;16.68;52.83;102642.38;5014733;28;20022;-49
2023/04/18 11:12:03;;;;;;;17.52;8.82;;;;;;;16.71;51.70;102653.69;5016592;28;20034;-55
2023/04/18 11:14:47;;;;;;;13.85;8.68;;;;;;;16.74;51.91;102655.34;4998621;28;20033;-54